sensor_id;sensor_type;location;lat;lon;timestamp;P1;durP1;ratioP1;P2;durP2;ratioP2
18387;SDS011;9320;50.256;19.026;2023-05-23T00:02:14;16.50;;;9.32;;
18387;SDS011;9320;50.256;19.026;2023-05-23T00:04:42;13.00;;;9.40;;
18387;SDS011;9320;50.256;19.026;2023-05-23T00:07:11;12.35;;;9.43;;
18387;SDS011;9320;50.256;19.026;2023-05-23T00:09:39;14.05;;;9.55;;
18387;SDS011;9320;50.256;19.026;2023-05-23T00:12:07;14.95;;;9.93;;
18387;SDS011;9320;50.256;19.026;2023-05-23T00:14:35;13.93;;;9.60;;
18387;SDS011;9320;50.256;19.026;2023-05-23T00:17:05;14.50;;;10.35;;
18387;SDS011;9320;50.256;19.026;2023-05-23T00:19:36;12.52;;;9.70;;
18387;SDS011;9320;50.256;19.026;2023-05-23T00:22:04;13.65;;;10.02;;
18387;SDS011;9320;50.256;19.026;2023-05-23T00:24:33;15.00;;;10.93;;
18387;SDS011;9320;50.256;19.026;2023-05-23T00:27:01;13.52;;;9.73;;
18387;SDS011;9320;50.256;19.026;2023-05-23T00:29:29;16.52;;;10.27;;
18387;SDS011;9320;50.256;19.026;2023-05-23T00:31:57;16.05;;;11.10;;
18387;SDS011;9320;50.256;19.026;2023-05-23T00:34:25;23.58;;;11.00;;
18387;SDS011;9320;50.256;19.026;2023-05-23T00:36:53;19.77;;;11.07;;
18387;SDS011;9320;50.256;19.026;2023-05-23T00:39:23;17.15;;;11.05;;
18387;SDS011;9320;50.256;19.026;2023-05-23T00:41:52;15.23;;;10.43;;
18387;SDS011;9320;50.256;19.026;2023-05-23T00:44:21;15.88;;;10.40;;
18387;SDS011;9320;50.256;19.026;2023-05-23T00:46:50;16.47;;;9.90;;
18387;SDS011;9320;50.256;19.026;2023-05-23T00:49:21;20.20;;;10.17;;
18387;SDS011;9320;50.256;19.026;2023-05-23T00:51:49;20.77;;;11.20;;
18387;SDS011;9320;50.256;19.026;2023-05-23T00:54:22;22.70;;;10.43;;
18387;SDS011;9320;50.256;19.026;2023-05-23T00:56:54;13.47;;;9.83;;
18387;SDS011;9320;50.256;19.026;2023-05-23T00:59:22;13.23;;;9.82;;
18387;SDS011;9320;50.256;19.026;2023-05-23T01:01:52;16.05;;;9.98;;
18387;SDS011;9320;50.256;19.026;2023-05-23T01:04:22;22.48;;;9.57;;
18387;SDS011;9320;50.256;19.026;2023-05-23T01:06:53;15.00;;;10.70;;
18387;SDS011;9320;50.256;19.026;2023-05-23T01:09:21;17.70;;;9.63;;
18387;SDS011;9320;50.256;19.026;2023-05-23T01:11:55;14.63;;;10.38;;
18387;SDS011;9320;50.256;19.026;2023-05-23T01:14:31;17.02;;;10.30;;
18387;SDS011;9320;50.256;19.026;2023-05-23T01:17:06;12.02;;;9.60;;
18387;SDS011;9320;50.256;19.026;2023-05-23T01:19:47;19.20;;;10.20;;
18387;SDS011;9320;50.256;19.026;2023-05-23T01:22:22;14.88;;;10.48;;
18387;SDS011;9320;50.256;19.026;2023-05-23T01:25:06;17.57;;;10.00;;
18387;SDS011;9320;50.256;19.026;2023-05-23T01:27:43;19.47;;;10.37;;
18387;SDS011;9320;50.256;19.026;2023-05-23T01:30:16;16.65;;;10.65;;
18387;SDS011;9320;50.256;19.026;2023-05-23T01:32:47;22.33;;;10.13;;
18387;SDS011;9320;50.256;19.026;2023-05-23T01:35:21;15.83;;;10.67;;
18387;SDS011;9320;50.256;19.026;2023-05-23T01:37:51;18.90;;;10.47;;
18387;SDS011;9320;50.256;19.026;2023-05-23T01:40:20;13.67;;;9.77;;
18387;SDS011;9320;50.256;19.026;2023-05-23T01:42:50;17.27;;;10.60;;
18387;SDS011;9320;50.256;19.026;2023-05-23T01:45:20;17.73;;;10.70;;
18387;SDS011;9320;50.256;19.026;2023-05-23T01:47:49;21.50;;;10.07;;
18387;SDS011;9320;50.256;19.026;2023-05-23T01:50:18;13.82;;;10.23;;
18387;SDS011;9320;50.256;19.026;2023-05-23T01:52:46;21.45;;;10.82;;
18387;SDS011;9320;50.256;19.026;2023-05-23T01:55:15;15.35;;;10.20;;
18387;SDS011;9320;50.256;19.026;2023-05-23T01:57:50;14.02;;;9.93;;
18387;SDS011;9320;50.256;19.026;2023-05-23T02:00:20;14.15;;;10.65;;
18387;SDS011;9320;50.256;19.026;2023-05-23T02:02:48;13.05;;;10.23;;
18387;SDS011;9320;50.256;19.026;2023-05-23T02:05:16;16.40;;;10.27;;
18387;SDS011;9320;50.256;19.026;2023-05-23T02:07:44;18.60;;;10.65;;
18387;SDS011;9320;50.256;19.026;2023-05-23T02:10:12;15.25;;;9.95;;
18387;SDS011;9320;50.256;19.026;2023-05-23T02:12:40;15.03;;;10.90;;
18387;SDS011;9320;50.256;19.026;2023-05-23T02:15:10;16.17;;;10.90;;
18387;SDS011;9320;50.256;19.026;2023-05-23T02:17:38;22.90;;;11.33;;
18387;SDS011;9320;50.256;19.026;2023-05-23T02:20:08;15.13;;;10.90;;
18387;SDS011;9320;50.256;19.026;2023-05-23T02:22:37;14.75;;;10.95;;
18387;SDS011;9320;50.256;19.026;2023-05-23T02:25:06;14.60;;;11.05;;
18387;SDS011;9320;50.256;19.026;2023-05-23T02:27:34;17.27;;;10.93;;
18387;SDS011;9320;50.256;19.026;2023-05-23T02:30:02;19.45;;;12.10;;
18387;SDS011;9320;50.256;19.026;2023-05-23T02:32:32;16.07;;;10.70;;
18387;SDS011;9320;50.256;19.026;2023-05-23T02:35:00;23.37;;;11.13;;
18387;SDS011;9320;50.256;19.026;2023-05-23T02:37:28;15.43;;;10.47;;
18387;SDS011;9320;50.256;19.026;2023-05-23T02:39:56;14.37;;;10.53;;
18387;SDS011;9320;50.256;19.026;2023-05-23T02:42:24;17.93;;;10.93;;
18387;SDS011;9320;50.256;19.026;2023-05-23T02:44:52;16.20;;;11.20;;
18387;SDS011;9320;50.256;19.026;2023-05-23T02:47:20;17.47;;;11.17;;
18387;SDS011;9320;50.256;19.026;2023-05-23T02:49:50;18.13;;;10.60;;
18387;SDS011;9320;50.256;19.026;2023-05-23T02:52:18;17.03;;;10.90;;
18387;SDS011;9320;50.256;19.026;2023-05-23T02:54:46;14.50;;;10.80;;
18387;SDS011;9320;50.256;19.026;2023-05-23T02:57:14;16.63;;;10.27;;
18387;SDS011;9320;50.256;19.026;2023-05-23T02:59:42;16.43;;;10.20;;
18387;SDS011;9320;50.256;19.026;2023-05-23T03:02:10;13.57;;;10.07;;
18387;SDS011;9320;50.256;19.026;2023-05-23T03:04:38;16.33;;;10.47;;
18387;SDS011;9320;50.256;19.026;2023-05-23T03:07:07;15.23;;;10.53;;
18387;SDS011;9320;50.256;19.026;2023-05-23T03:09:49;16.80;;;10.57;;
18387;SDS011;9320;50.256;19.026;2023-05-23T03:12:17;16.10;;;10.50;;
18387;SDS011;9320;50.256;19.026;2023-05-23T03:14:46;13.97;;;10.80;;
18387;SDS011;9320;50.256;19.026;2023-05-23T03:17:14;17.77;;;10.77;;
18387;SDS011;9320;50.256;19.026;2023-05-23T03:19:42;15.83;;;10.80;;
18387;SDS011;9320;50.256;19.026;2023-05-23T03:22:11;18.33;;;11.23;;
18387;SDS011;9320;50.256;19.026;2023-05-23T03:24:40;14.23;;;10.87;;
18387;SDS011;9320;50.256;19.026;2023-05-23T03:27:08;17.47;;;10.60;;
18387;SDS011;9320;50.256;19.026;2023-05-23T03:29:36;15.93;;;11.57;;
18387;SDS011;9320;50.256;19.026;2023-05-23T03:32:04;15.17;;;9.60;;
18387;SDS011;9320;50.256;19.026;2023-05-23T03:34:33;13.20;;;10.80;;
18387;SDS011;9320;50.256;19.026;2023-05-23T03:37:01;16.53;;;11.10;;
18387;SDS011;9320;50.256;19.026;2023-05-23T03:39:31;17.37;;;11.33;;
18387;SDS011;9320;50.256;19.026;2023-05-23T03:41:59;20.70;;;10.60;;
18387;SDS011;9320;50.256;19.026;2023-05-23T03:44:27;15.47;;;10.73;;
18387;SDS011;9320;50.256;19.026;2023-05-23T03:46:55;18.83;;;11.13;;
18387;SDS011;9320;50.256;19.026;2023-05-23T03:49:23;15.17;;;10.90;;
18387;SDS011;9320;50.256;19.026;2023-05-23T03:51:52;19.05;;;10.45;;
18387;SDS011;9320;50.256;19.026;2023-05-23T03:54:20;15.33;;;10.50;;
18387;SDS011;9320;50.256;19.026;2023-05-23T03:56:49;19.47;;;10.63;;
18387;SDS011;9320;50.256;19.026;2023-05-23T03:59:17;13.18;;;9.80;;
18387;SDS011;9320;50.256;19.026;2023-05-23T04:01:45;14.80;;;10.90;;
18387;SDS011;9320;50.256;19.026;2023-05-23T04:04:14;18.02;;;12.07;;
18387;SDS011;9320;50.256;19.026;2023-05-23T04:06:42;20.63;;;10.95;;
18387;SDS011;9320;50.256;19.026;2023-05-23T04:09:10;16.92;;;11.45;;
18387;SDS011;9320;50.256;19.026;2023-05-23T04:11:39;14.88;;;11.00;;
18387;SDS011;9320;50.256;19.026;2023-05-23T04:14:09;16.55;;;11.13;;
18387;SDS011;9320;50.256;19.026;2023-05-23T04:16:37;16.55;;;11.30;;
18387;SDS011;9320;50.256;19.026;2023-05-23T04:19:07;22.40;;;11.68;;
18387;SDS011;9320;50.256;19.026;2023-05-23T04:21:35;21.17;;;11.32;;
18387;SDS011;9320;50.256;19.026;2023-05-23T04:24:03;16.13;;;11.15;;
18387;SDS011;9320;50.256;19.026;2023-05-23T04:26:31;18.27;;;11.83;;
18387;SDS011;9320;50.256;19.026;2023-05-23T04:29:01;15.77;;;11.30;;
18387;SDS011;9320;50.256;19.026;2023-05-23T04:31:33;18.00;;;12.00;;
18387;SDS011;9320;50.256;19.026;2023-05-23T04:34:01;17.02;;;11.73;;
18387;SDS011;9320;50.256;19.026;2023-05-23T04:36:29;16.40;;;11.33;;
18387;SDS011;9320;50.256;19.026;2023-05-23T04:38:57;15.95;;;11.35;;
18387;SDS011;9320;50.256;19.026;2023-05-23T04:41:25;18.27;;;11.50;;
18387;SDS011;9320;50.256;19.026;2023-05-23T04:43:53;20.75;;;12.68;;
18387;SDS011;9320;50.256;19.026;2023-05-23T04:46:23;22.58;;;12.55;;
18387;SDS011;9320;50.256;19.026;2023-05-23T04:48:53;22.42;;;13.25;;
18387;SDS011;9320;50.256;19.026;2023-05-23T04:51:24;17.92;;;12.70;;
18387;SDS011;9320;50.256;19.026;2023-05-23T04:53:52;24.40;;;12.88;;
18387;SDS011;9320;50.256;19.026;2023-05-23T04:56:20;22.98;;;13.60;;
18387;SDS011;9320;50.256;19.026;2023-05-23T04:58:53;21.52;;;13.30;;
18387;SDS011;9320;50.256;19.026;2023-05-23T05:01:22;19.55;;;12.38;;
18387;SDS011;9320;50.256;19.026;2023-05-23T05:03:50;18.42;;;12.18;;
18387;SDS011;9320;50.256;19.026;2023-05-23T05:06:20;20.67;;;11.73;;
18387;SDS011;9320;50.256;19.026;2023-05-23T05:08:48;16.75;;;11.43;;
18387;SDS011;9320;50.256;19.026;2023-05-23T05:11:16;19.00;;;11.52;;
18387;SDS011;9320;50.256;19.026;2023-05-23T05:13:44;13.50;;;10.43;;
18387;SDS011;9320;50.256;19.026;2023-05-23T05:16:12;19.75;;;11.25;;
18387;SDS011;9320;50.256;19.026;2023-05-23T05:18:40;16.33;;;10.55;;
18387;SDS011;9320;50.256;19.026;2023-05-23T05:21:08;16.02;;;11.00;;
18387;SDS011;9320;50.256;19.026;2023-05-23T05:23:38;15.80;;;10.38;;
18387;SDS011;9320;50.256;19.026;2023-05-23T05:26:06;15.38;;;10.75;;
18387;SDS011;9320;50.256;19.026;2023-05-23T05:28:34;17.52;;;11.45;;
18387;SDS011;9320;50.256;19.026;2023-05-23T05:31:03;16.75;;;11.20;;
18387;SDS011;9320;50.256;19.026;2023-05-23T05:33:31;17.33;;;10.82;;
18387;SDS011;9320;50.256;19.026;2023-05-23T05:36:01;14.55;;;10.55;;
18387;SDS011;9320;50.256;19.026;2023-05-23T05:38:30;13.73;;;10.82;;
18387;SDS011;9320;50.256;19.026;2023-05-23T05:40:59;16.00;;;10.60;;
18387;SDS011;9320;50.256;19.026;2023-05-23T05:43:27;20.23;;;11.18;;
18387;SDS011;9320;50.256;19.026;2023-05-23T05:45:55;17.27;;;10.83;;
18387;SDS011;9320;50.256;19.026;2023-05-23T05:48:23;20.85;;;11.70;;
18387;SDS011;9320;50.256;19.026;2023-05-23T05:50:51;15.00;;;10.45;;
18387;SDS011;9320;50.256;19.026;2023-05-23T05:53:19;16.23;;;10.93;;
18387;SDS011;9320;50.256;19.026;2023-05-23T05:55:47;19.92;;;10.50;;
18387;SDS011;9320;50.256;19.026;2023-05-23T05:58:17;15.70;;;10.77;;
18387;SDS011;9320;50.256;19.026;2023-05-23T06:00:45;15.10;;;10.88;;
18387;SDS011;9320;50.256;19.026;2023-05-23T06:03:14;14.65;;;10.63;;
18387;SDS011;9320;50.256;19.026;2023-05-23T06:05:42;14.02;;;10.27;;
18387;SDS011;9320;50.256;19.026;2023-05-23T06:08:10;17.08;;;10.23;;
18387;SDS011;9320;50.256;19.026;2023-05-23T06:10:38;13.57;;;10.57;;
18387;SDS011;9320;50.256;19.026;2023-05-23T06:13:07;17.73;;;10.63;;
18387;SDS011;9320;50.256;19.026;2023-05-23T06:15:36;16.83;;;10.48;;
18387;SDS011;9320;50.256;19.026;2023-05-23T06:18:04;14.05;;;10.88;;
18387;SDS011;9320;50.256;19.026;2023-05-23T06:20:32;15.23;;;11.07;;
18387;SDS011;9320;50.256;19.026;2023-05-23T06:23:01;19.15;;;10.98;;
18387;SDS011;9320;50.256;19.026;2023-05-23T06:25:30;20.42;;;11.70;;
18387;SDS011;9320;50.256;19.026;2023-05-23T06:27:59;17.33;;;10.77;;
18387;SDS011;9320;50.256;19.026;2023-05-23T06:30:27;19.17;;;10.85;;
18387;SDS011;9320;50.256;19.026;2023-05-23T06:32:57;15.00;;;10.13;;
18387;SDS011;9320;50.256;19.026;2023-05-23T06:35:25;15.23;;;11.07;;
18387;SDS011;9320;50.256;19.026;2023-05-23T06:37:53;15.13;;;10.57;;
18387;SDS011;9320;50.256;19.026;2023-05-23T06:40:21;20.90;;;10.95;;
18387;SDS011;9320;50.256;19.026;2023-05-23T06:42:49;15.48;;;10.15;;
18387;SDS011;9320;50.256;19.026;2023-05-23T06:45:17;18.60;;;10.77;;
18387;SDS011;9320;50.256;19.026;2023-05-23T06:47:45;18.90;;;11.40;;
18387;SDS011;9320;50.256;19.026;2023-05-23T06:50:16;14.93;;;10.60;;
18387;SDS011;9320;50.256;19.026;2023-05-23T06:52:45;19.92;;;10.43;;
18387;SDS011;9320;50.256;19.026;2023-05-23T06:55:13;17.73;;;10.48;;
18387;SDS011;9320;50.256;19.026;2023-05-23T06:57:44;14.13;;;10.40;;
18387;SDS011;9320;50.256;19.026;2023-05-23T07:00:16;21.15;;;11.52;;
18387;SDS011;9320;50.256;19.026;2023-05-23T07:02:44;18.25;;;10.65;;
18387;SDS011;9320;50.256;19.026;2023-05-23T07:05:15;14.20;;;10.63;;
18387;SDS011;9320;50.256;19.026;2023-05-23T07:07:43;15.70;;;10.68;;
18387;SDS011;9320;50.256;19.026;2023-05-23T07:10:11;14.15;;;10.43;;
18387;SDS011;9320;50.256;19.026;2023-05-23T07:12:39;15.90;;;10.68;;
18387;SDS011;9320;50.256;19.026;2023-05-23T07:15:10;16.30;;;10.30;;
18387;SDS011;9320;50.256;19.026;2023-05-23T07:17:39;15.45;;;10.13;;
18387;SDS011;9320;50.256;19.026;2023-05-23T07:20:07;17.17;;;10.60;;
18387;SDS011;9320;50.256;19.026;2023-05-23T07:22:37;14.55;;;10.70;;
18387;SDS011;9320;50.256;19.026;2023-05-23T07:25:06;14.63;;;9.95;;
18387;SDS011;9320;50.256;19.026;2023-05-23T07:27:34;17.50;;;10.35;;
18387;SDS011;9320;50.256;19.026;2023-05-23T07:30:03;14.68;;;10.35;;
18387;SDS011;9320;50.256;19.026;2023-05-23T07:32:32;14.98;;;10.27;;
18387;SDS011;9320;50.256;19.026;2023-05-23T07:35:00;19.83;;;11.07;;
18387;SDS011;9320;50.256;19.026;2023-05-23T07:37:28;14.52;;;10.50;;
18387;SDS011;9320;50.256;19.026;2023-05-23T07:39:57;15.27;;;10.05;;
18387;SDS011;9320;50.256;19.026;2023-05-23T07:42:25;17.23;;;10.27;;
18387;SDS011;9320;50.256;19.026;2023-05-23T07:44:53;12.10;;;9.63;;
18387;SDS011;9320;50.256;19.026;2023-05-23T07:47:21;21.80;;;10.73;;
18387;SDS011;9320;50.256;19.026;2023-05-23T07:49:50;15.63;;;10.48;;
18387;SDS011;9320;50.256;19.026;2023-05-23T07:52:18;16.67;;;10.43;;
18387;SDS011;9320;50.256;19.026;2023-05-23T07:54:46;16.58;;;10.65;;
18387;SDS011;9320;50.256;19.026;2023-05-23T07:57:15;17.73;;;10.50;;
18387;SDS011;9320;50.256;19.026;2023-05-23T07:59:44;16.48;;;10.32;;
18387;SDS011;9320;50.256;19.026;2023-05-23T08:02:12;20.98;;;10.80;;
18387;SDS011;9320;50.256;19.026;2023-05-23T08:04:40;19.70;;;10.40;;
18387;SDS011;9320;50.256;19.026;2023-05-23T08:07:08;19.30;;;9.65;;
18387;SDS011;9320;50.256;19.026;2023-05-23T08:09:36;16.05;;;9.43;;
18387;SDS011;9320;50.256;19.026;2023-05-23T08:12:05;13.50;;;9.48;;
18387;SDS011;9320;50.256;19.026;2023-05-23T08:14:35;14.18;;;9.35;;
18387;SDS011;9320;50.256;19.026;2023-05-23T08:17:17;13.40;;;9.00;;
18387;SDS011;9320;50.256;19.026;2023-05-23T08:19:45;15.05;;;9.63;;
18387;SDS011;9320;50.256;19.026;2023-05-23T08:22:13;20.00;;;9.85;;
18387;SDS011;9320;50.256;19.026;2023-05-23T08:24:41;15.32;;;9.32;;
18387;SDS011;9320;50.256;19.026;2023-05-23T08:27:09;16.88;;;9.35;;
18387;SDS011;9320;50.256;19.026;2023-05-23T08:29:39;12.32;;;8.40;;
18387;SDS011;9320;50.256;19.026;2023-05-23T08:32:08;14.63;;;9.20;;
18387;SDS011;9320;50.256;19.026;2023-05-23T08:34:36;16.63;;;8.88;;
18387;SDS011;9320;50.256;19.026;2023-05-23T08:37:04;13.18;;;8.30;;
18387;SDS011;9320;50.256;19.026;2023-05-23T08:39:32;14.18;;;8.65;;
18387;SDS011;9320;50.256;19.026;2023-05-23T08:42:01;15.35;;;8.60;;
18387;SDS011;9320;50.256;19.026;2023-05-23T08:44:29;14.30;;;8.80;;
18387;SDS011;9320;50.256;19.026;2023-05-23T08:46:59;11.30;;;7.50;;
18387;SDS011;9320;50.256;19.026;2023-05-23T08:49:31;11.65;;;8.27;;
18387;SDS011;9320;50.256;19.026;2023-05-23T08:52:00;10.15;;;7.53;;
18387;SDS011;9320;50.256;19.026;2023-05-23T08:54:29;12.95;;;7.53;;
18387;SDS011;9320;50.256;19.026;2023-05-23T08:56:59;11.82;;;7.30;;
18387;SDS011;9320;50.256;19.026;2023-05-23T08:59:28;10.70;;;7.32;;
18387;SDS011;9320;50.256;19.026;2023-05-23T09:01:59;10.05;;;7.10;;
18387;SDS011;9320;50.256;19.026;2023-05-23T09:04:33;8.75;;;7.07;;
18387;SDS011;9320;50.256;19.026;2023-05-23T09:07:01;10.63;;;7.60;;
18387;SDS011;9320;50.256;19.026;2023-05-23T09:09:30;10.15;;;7.63;;
18387;SDS011;9320;50.256;19.026;2023-05-23T09:11:59;9.48;;;7.18;;
18387;SDS011;9320;50.256;19.026;2023-05-23T09:14:28;12.38;;;7.93;;
18387;SDS011;9320;50.256;19.026;2023-05-23T09:17:00;18.67;;;7.35;;
18387;SDS011;9320;50.256;19.026;2023-05-23T09:19:30;10.25;;;7.15;;
18387;SDS011;9320;50.256;19.026;2023-05-23T09:21:59;9.68;;;6.90;;
18387;SDS011;9320;50.256;19.026;2023-05-23T09:24:35;10.30;;;6.97;;
18387;SDS011;9320;50.256;19.026;2023-05-23T09:27:04;10.05;;;6.80;;
18387;SDS011;9320;50.256;19.026;2023-05-23T09:29:35;12.73;;;7.60;;
18387;SDS011;9320;50.256;19.026;2023-05-23T09:32:14;12.52;;;6.78;;
18387;SDS011;9320;50.256;19.026;2023-05-23T09:37:30;12.63;;;7.20;;
18387;SDS011;9320;50.256;19.026;2023-05-23T09:39:59;13.90;;;7.00;;
18387;SDS011;9320;50.256;19.026;2023-05-23T09:42:32;11.88;;;7.10;;
18387;SDS011;9320;50.256;19.026;2023-05-23T09:45:00;11.88;;;7.10;;
18387;SDS011;9320;50.256;19.026;2023-05-23T09:47:31;10.95;;;6.80;;
18387;SDS011;9320;50.256;19.026;2023-05-23T09:49:59;12.30;;;6.88;;
18387;SDS011;9320;50.256;19.026;2023-05-23T09:52:32;10.68;;;6.65;;
18387;SDS011;9320;50.256;19.026;2023-05-23T09:55:02;8.35;;;6.65;;
18387;SDS011;9320;50.256;19.026;2023-05-23T09:57:32;12.68;;;6.68;;
18387;SDS011;9320;50.256;19.026;2023-05-23T10:00:02;9.43;;;6.28;;
18387;SDS011;9320;50.256;19.026;2023-05-23T10:02:46;9.85;;;6.80;;
18387;SDS011;9320;50.256;19.026;2023-05-23T10:05:32;12.40;;;6.50;;
18387;SDS011;9320;50.256;19.026;2023-05-23T10:08:04;11.30;;;6.28;;
18387;SDS011;9320;50.256;19.026;2023-05-23T10:10:49;8.85;;;6.18;;
18387;SDS011;9320;50.256;19.026;2023-05-23T10:14:09;8.10;;;6.40;;
18387;SDS011;9320;50.256;19.026;2023-05-23T10:16:39;12.75;;;6.45;;
18387;SDS011;9320;50.256;19.026;2023-05-23T10:19:19;9.88;;;6.68;;
18387;SDS011;9320;50.256;19.026;2023-05-23T10:21:54;9.20;;;6.90;;
18387;SDS011;9320;50.256;19.026;2023-05-23T10:24:25;15.02;;;6.90;;
18387;SDS011;9320;50.256;19.026;2023-05-23T10:26:54;13.23;;;7.43;;
18387;SDS011;9320;50.256;19.026;2023-05-23T10:29:22;9.48;;;6.80;;
18387;SDS011;9320;50.256;19.026;2023-05-23T10:31:51;12.05;;;6.97;;
18387;SDS011;9320;50.256;19.026;2023-05-23T10:34:24;7.95;;;6.70;;
18387;SDS011;9320;50.256;19.026;2023-05-23T10:36:59;16.38;;;7.25;;
18387;SDS011;9320;50.256;19.026;2023-05-23T10:39:36;11.32;;;6.85;;
18387;SDS011;9320;50.256;19.026;2023-05-23T10:42:14;9.23;;;6.63;;
18387;SDS011;9320;50.256;19.026;2023-05-23T10:44:46;9.10;;;6.90;;
18387;SDS011;9320;50.256;19.026;2023-05-23T10:47:24;12.45;;;7.45;;
18387;SDS011;9320;50.256;19.026;2023-05-23T10:49:55;15.00;;;7.72;;
18387;SDS011;9320;50.256;19.026;2023-05-23T10:52:23;15.43;;;7.40;;
18387;SDS011;9320;50.256;19.026;2023-05-23T10:54:53;12.00;;;7.25;;
18387;SDS011;9320;50.256;19.026;2023-05-23T10:57:25;8.88;;;6.80;;
18387;SDS011;9320;50.256;19.026;2023-05-23T10:59:53;9.30;;;6.78;;
18387;SDS011;9320;50.256;19.026;2023-05-23T11:02:24;8.77;;;6.85;;
18387;SDS011;9320;50.256;19.026;2023-05-23T11:13:20;11.05;;;7.45;;
18387;SDS011;9320;50.256;19.026;2023-05-23T11:15:49;10.48;;;7.05;;
18387;SDS011;9320;50.256;19.026;2023-05-23T11:18:18;10.85;;;7.20;;
18387;SDS011;9320;50.256;19.026;2023-05-23T11:20:50;9.75;;;7.55;;
18387;SDS011;9320;50.256;19.026;2023-05-23T11:23:20;10.25;;;7.45;;
18387;SDS011;9320;50.256;19.026;2023-05-23T11:25:49;13.40;;;7.65;;
18387;SDS011;9320;50.256;19.026;2023-05-23T11:28:19;14.15;;;7.57;;
18387;SDS011;9320;50.256;19.026;2023-05-23T11:30:49;15.23;;;7.50;;
18387;SDS011;9320;50.256;19.026;2023-05-23T11:33:17;13.02;;;7.60;;
18387;SDS011;9320;50.256;19.026;2023-05-23T11:35:47;11.50;;;7.22;;
18387;SDS011;9320;50.256;19.026;2023-05-23T11:38:18;9.93;;;6.93;;
18387;SDS011;9320;50.256;19.026;2023-05-23T11:40:46;12.27;;;7.20;;
18387;SDS011;9320;50.256;19.026;2023-05-23T11:43:15;15.45;;;7.93;;
18387;SDS011;9320;50.256;19.026;2023-05-23T11:45:45;11.80;;;7.55;;
18387;SDS011;9320;50.256;19.026;2023-05-23T11:48:14;10.05;;;7.75;;
18387;SDS011;9320;50.256;19.026;2023-05-23T11:50:44;10.77;;;6.95;;
18387;SDS011;9320;50.256;19.026;2023-05-23T11:53:13;10.85;;;7.97;;
18387;SDS011;9320;50.256;19.026;2023-05-23T11:55:50;14.57;;;7.90;;
18387;SDS011;9320;50.256;19.026;2023-05-23T11:58:20;9.57;;;7.22;;
18387;SDS011;9320;50.256;19.026;2023-05-23T12:00:49;13.80;;;7.93;;
18387;SDS011;9320;50.256;19.026;2023-05-23T12:03:20;11.23;;;7.32;;
18387;SDS011;9320;50.256;19.026;2023-05-23T12:05:48;11.90;;;7.43;;
18387;SDS011;9320;50.256;19.026;2023-05-23T12:08:17;10.43;;;7.55;;
18387;SDS011;9320;50.256;19.026;2023-05-23T12:10:48;8.85;;;7.80;;
18387;SDS011;9320;50.256;19.026;2023-05-23T12:13:19;9.10;;;8.15;;
18387;SDS011;9320;50.256;19.026;2023-05-23T12:15:52;12.32;;;7.53;;
18387;SDS011;9320;50.256;19.026;2023-05-23T12:18:21;13.05;;;8.15;;
18387;SDS011;9320;50.256;19.026;2023-05-23T12:20:49;13.27;;;8.43;;
18387;SDS011;9320;50.256;19.026;2023-05-23T12:23:18;8.52;;;7.68;;
18387;SDS011;9320;50.256;19.026;2023-05-23T12:25:51;9.85;;;7.72;;
18387;SDS011;9320;50.256;19.026;2023-05-23T12:28:20;49.83;;;10.25;;
18387;SDS011;9320;50.256;19.026;2023-05-23T12:31:07;23.83;;;8.93;;
18387;SDS011;9320;50.256;19.026;2023-05-23T12:33:37;28.08;;;9.05;;
18387;SDS011;9320;50.256;19.026;2023-05-23T12:36:06;23.48;;;9.50;;
18387;SDS011;9320;50.256;19.026;2023-05-23T12:38:35;30.98;;;10.90;;
18387;SDS011;9320;50.256;19.026;2023-05-23T12:41:08;18.95;;;9.80;;
18387;SDS011;9320;50.256;19.026;2023-05-23T12:43:37;27.17;;;10.45;;
18387;SDS011;9320;50.256;19.026;2023-05-23T12:46:05;15.45;;;10.60;;
18387;SDS011;9320;50.256;19.026;2023-05-23T12:48:34;15.80;;;10.05;;
18387;SDS011;9320;50.256;19.026;2023-05-23T12:51:02;16.83;;;11.15;;
18387;SDS011;9320;50.256;19.026;2023-05-23T12:53:31;16.58;;;11.02;;
18387;SDS011;9320;50.256;19.026;2023-05-23T12:55:59;15.00;;;10.32;;
18387;SDS011;9320;50.256;19.026;2023-05-23T12:58:28;12.85;;;10.05;;
18387;SDS011;9320;50.256;19.026;2023-05-23T13:00:57;17.42;;;10.45;;
18387;SDS011;9320;50.256;19.026;2023-05-23T13:03:26;14.52;;;9.40;;
18387;SDS011;9320;50.256;19.026;2023-05-23T13:05:55;14.68;;;10.27;;
18387;SDS011;9320;50.256;19.026;2023-05-23T13:08:23;13.50;;;10.27;;
18387;SDS011;9320;50.256;19.026;2023-05-23T13:10:51;19.75;;;10.52;;
18387;SDS011;9320;50.256;19.026;2023-05-23T13:13:20;16.13;;;9.57;;
18387;SDS011;9320;50.256;19.026;2023-05-23T13:15:50;13.80;;;8.90;;
18387;SDS011;9320;50.256;19.026;2023-05-23T13:18:18;13.85;;;8.73;;
18387;SDS011;9320;50.256;19.026;2023-05-23T13:20:46;11.10;;;8.80;;
18387;SDS011;9320;50.256;19.026;2023-05-23T13:23:14;10.25;;;7.95;;
18387;SDS011;9320;50.256;19.026;2023-05-23T13:25:42;8.95;;;7.78;;
18387;SDS011;9320;50.256;19.026;2023-05-23T13:28:10;10.73;;;7.72;;
18387;SDS011;9320;50.256;19.026;2023-05-23T13:30:38;9.13;;;8.00;;
18387;SDS011;9320;50.256;19.026;2023-05-23T13:33:12;11.38;;;7.63;;
18387;SDS011;9320;50.256;19.026;2023-05-23T13:35:40;9.80;;;8.00;;
18387;SDS011;9320;50.256;19.026;2023-05-23T13:38:09;10.13;;;9.07;;
18387;SDS011;9320;50.256;19.026;2023-05-23T13:40:37;11.68;;;9.55;;
18387;SDS011;9320;50.256;19.026;2023-05-23T13:43:06;12.77;;;9.82;;
18387;SDS011;9320;50.256;19.026;2023-05-23T13:45:34;9.90;;;8.30;;
18387;SDS011;9320;50.256;19.026;2023-05-23T13:48:02;9.00;;;8.10;;
18387;SDS011;9320;50.256;19.026;2023-05-23T13:50:32;8.38;;;7.47;;
18387;SDS011;9320;50.256;19.026;2023-05-23T13:53:00;10.40;;;7.50;;
18387;SDS011;9320;50.256;19.026;2023-05-23T13:55:28;7.80;;;7.00;;
18387;SDS011;9320;50.256;19.026;2023-05-23T13:57:56;8.85;;;7.00;;
18387;SDS011;9320;50.256;19.026;2023-05-23T14:00:24;10.20;;;7.30;;
18387;SDS011;9320;50.256;19.026;2023-05-23T14:02:52;9.77;;;7.00;;
18387;SDS011;9320;50.256;19.026;2023-05-23T14:05:20;8.00;;;7.20;;
18387;SDS011;9320;50.256;19.026;2023-05-23T14:07:50;9.20;;;7.15;;
18387;SDS011;9320;50.256;19.026;2023-05-23T14:10:18;9.98;;;7.20;;
18387;SDS011;9320;50.256;19.026;2023-05-23T14:12:46;8.00;;;6.90;;
18387;SDS011;9320;50.256;19.026;2023-05-23T14:15:14;9.20;;;6.90;;
18387;SDS011;9320;50.256;19.026;2023-05-23T14:17:43;8.10;;;7.30;;
18387;SDS011;9320;50.256;19.026;2023-05-23T14:20:11;14.25;;;7.88;;
18387;SDS011;9320;50.256;19.026;2023-05-23T14:22:39;9.75;;;7.35;;
18387;SDS011;9320;50.256;19.026;2023-05-23T14:25:09;9.30;;;7.45;;
18387;SDS011;9320;50.256;19.026;2023-05-23T14:27:37;11.98;;;7.43;;
18387;SDS011;9320;50.256;19.026;2023-05-23T14:30:06;9.60;;;7.32;;
18387;SDS011;9320;50.256;19.026;2023-05-23T14:32:34;10.95;;;7.60;;
18387;SDS011;9320;50.256;19.026;2023-05-23T14:35:04;9.57;;;7.55;;
18387;SDS011;9320;50.256;19.026;2023-05-23T14:37:34;11.70;;;7.75;;
18387;SDS011;9320;50.256;19.026;2023-05-23T14:40:02;13.02;;;7.25;;
18387;SDS011;9320;50.256;19.026;2023-05-23T14:42:32;13.18;;;8.55;;
18387;SDS011;9320;50.256;19.026;2023-05-23T14:45:00;12.73;;;8.65;;
18387;SDS011;9320;50.256;19.026;2023-05-23T14:47:28;13.32;;;9.00;;
18387;SDS011;9320;50.256;19.026;2023-05-23T14:49:57;12.15;;;7.93;;
18387;SDS011;9320;50.256;19.026;2023-05-23T14:52:25;14.48;;;8.45;;
18387;SDS011;9320;50.256;19.026;2023-05-23T14:54:53;12.50;;;8.93;;